createdAt,value
2023-01-18T00:01:31.220Z,13.20
2023-01-18T00:04:01.518Z,14.50
2023-01-18T00:06:31.785Z,14.60
2023-01-18T00:09:02.051Z,15.30
2023-01-18T00:11:32.445Z,13.80
2023-01-18T00:14:03.149Z,14.10
2023-01-18T00:16:36.383Z,17.35
2023-01-18T00:19:06.995Z,12.00
2023-01-18T00:21:37.389Z,19.73
2023-01-18T00:24:11.187Z,17.57
2023-01-18T00:26:41.493Z,16.13
2023-01-18T00:29:12.988Z,17.83
2023-01-18T00:31:45.964Z,16.67
2023-01-18T00:34:16.238Z,15.07
2023-01-18T00:36:46.514Z,13.93
2023-01-18T00:39:17.199Z,12.43
2023-01-18T00:41:59.880Z,13.95
2023-01-18T00:44:30.099Z,13.80
2023-01-18T00:47:03.091Z,12.27
2023-01-18T00:49:33.423Z,16.43
2023-01-18T00:52:03.700Z,17.83
2023-01-18T00:54:33.993Z,15.80
2023-01-18T00:57:04.270Z,18.60
2023-01-18T00:59:34.584Z,17.57
2023-01-18T01:02:07.734Z,15.80
2023-01-18T01:04:50.443Z,17.03
2023-01-18T01:07:20.709Z,15.03
2023-01-18T01:09:51.016Z,14.40
2023-01-18T01:12:33.714Z,12.97
2023-01-18T01:15:16.374Z,14.70
2023-01-18T01:18:01.668Z,17.83
2023-01-18T01:20:44.503Z,13.77
2023-01-18T01:23:29.820Z,14.57
2023-01-18T01:26:08.109Z,15.40
2023-01-18T01:28:39.104Z,15.40
2023-01-18T01:31:12.107Z,13.13
2023-01-18T01:33:45.716Z,14.93
2023-01-18T01:36:18.035Z,13.80
2023-01-18T01:38:48.379Z,16.53
2023-01-18T01:41:25.431Z,15.13
2023-01-18T01:43:58.017Z,15.07
2023-01-18T01:46:36.959Z,15.17
2023-01-18T01:49:14.634Z,12.97
2023-01-18T01:51:48.086Z,15.90
2023-01-18T01:54:25.449Z,16.70
2023-01-18T01:57:00.758Z,14.47
2023-01-18T01:59:31.184Z,15.40
2023-01-18T02:02:01.594Z,16.20
2023-01-18T02:04:35.424Z,14.10
2023-01-18T02:07:05.798Z,13.63
2023-01-18T02:09:36.166Z,15.37
2023-01-18T02:12:07.345Z,21.33
2023-01-18T02:14:37.734Z,16.30
2023-01-18T02:17:31.044Z,19.80
2023-01-18T02:20:41.937Z,18.23
2023-01-18T02:23:35.657Z,18.27
2023-01-18T02:26:42.423Z,20.67
2023-01-18T02:29:19.340Z,18.57
2023-01-18T02:32:06.667Z,20.73
2023-01-18T02:34:44.098Z,18.57
2023-01-18T02:37:23.916Z,14.37
2023-01-18T02:40:08.189Z,20.63
2023-01-18T02:42:53.855Z,13.63
2023-01-18T02:45:46.507Z,14.63
2023-01-18T02:48:18.155Z,13.53
2023-01-18T02:50:48.448Z,12.20
2023-01-18T02:53:20.243Z,14.00
2023-01-18T02:55:56.611Z,12.30
2023-01-18T02:58:31.900Z,11.63
2023-01-18T03:01:10.851Z,13.13
2023-01-18T03:03:44.901Z,12.27
2023-01-18T03:06:15.642Z,14.23
2023-01-18T03:08:51.079Z,13.93
2023-01-18T03:11:30.324Z,13.33
2023-01-18T03:14:13.016Z,11.70
2023-01-18T03:17:00.760Z,13.80
2023-01-18T03:19:55.621Z,12.37
2023-01-18T03:22:49.402Z,11.90
2023-01-18T03:25:22.628Z,12.07
2023-01-18T03:28:08.561Z,12.93
2023-01-18T03:30:52.188Z,12.40
2023-01-18T03:33:40.100Z,13.00
2023-01-18T03:36:17.717Z,13.67
2023-01-18T03:38:53.629Z,11.83
2023-01-18T03:41:26.126Z,11.17
2023-01-18T03:43:59.666Z,9.73
2023-01-18T03:46:34.491Z,10.13
2023-01-18T03:49:07.961Z,13.40
2023-01-18T03:51:52.444Z,9.83
2023-01-18T03:54:33.418Z,11.33
2023-01-18T03:57:10.589Z,9.15
2023-01-18T03:59:42.431Z,9.30
2023-01-18T04:02:13.838Z,13.07
2023-01-18T04:04:46.782Z,11.33
2023-01-18T04:07:17.156Z,10.50
2023-01-18T04:09:47.490Z,12.20
2023-01-18T04:12:17.813Z,10.63
2023-01-18T04:14:48.168Z,10.20
2023-01-18T04:17:19.140Z,11.13
2023-01-18T04:19:52.148Z,11.73
2023-01-18T04:22:22.942Z,10.00
2023-01-18T04:24:53.282Z,12.27
2023-01-18T04:27:25.216Z,13.23
2023-01-18T04:29:55.658Z,11.77
2023-01-18T04:32:25.953Z,9.60
2023-01-18T04:34:58.884Z,13.80
2023-01-18T04:37:31.608Z,9.87
2023-01-18T04:40:01.866Z,12.23
2023-01-18T04:42:32.357Z,10.43
2023-01-18T04:45:02.834Z,9.43
2023-01-18T04:47:33.063Z,9.43
2023-01-18T04:50:07.814Z,11.10
2023-01-18T04:52:38.123Z,10.53
2023-01-18T04:55:11.796Z,11.53
2023-01-18T04:57:42.156Z,12.67
2023-01-18T05:00:15.077Z,10.03
2023-01-18T05:02:45.415Z,10.83
2023-01-18T05:05:18.625Z,11.70
2023-01-18T05:07:48.973Z,12.07
2023-01-18T05:10:20.014Z,11.20
2023-01-18T05:12:50.338Z,15.05
2023-01-18T05:15:20.964Z,10.97
2023-01-18T05:17:51.351Z,16.02
2023-01-18T05:20:24.344Z,19.63
2023-01-18T05:22:54.655Z,11.07
2023-01-18T05:25:24.991Z,15.27
2023-01-18T05:27:55.320Z,12.27
2023-01-18T05:30:25.612Z,11.43
2023-01-18T05:32:55.907Z,13.30
2023-01-18T05:35:28.901Z,15.20
2023-01-18T05:37:59.221Z,11.90
2023-01-18T05:40:29.654Z,10.73
2023-01-18T05:43:00.326Z,13.60
2023-01-18T05:45:30.954Z,14.38
2023-01-18T05:48:13.228Z,12.90
2023-01-18T05:50:48.617Z,11.67
2023-01-18T05:53:21.101Z,12.63
2023-01-18T05:55:58.176Z,14.93
2023-01-18T05:58:29.282Z,12.93
2023-01-18T06:00:59.919Z,15.07
2023-01-18T06:03:30.275Z,14.43
2023-01-18T06:06:03.241Z,13.40
2023-01-18T06:08:33.992Z,14.13
2023-01-18T06:11:04.596Z,22.50
2023-01-18T06:13:35.579Z,15.18
2023-01-18T06:16:07.436Z,16.15
2023-01-18T06:18:39.649Z,15.30
2023-01-18T06:21:12.583Z,15.93
2023-01-18T06:23:42.866Z,16.60
2023-01-18T06:26:13.193Z,16.23
2023-01-18T06:28:43.512Z,19.43
2023-01-18T06:31:13.817Z,14.73
2023-01-18T06:33:44.028Z,14.07
2023-01-18T06:36:17.028Z,17.77
2023-01-18T06:38:47.347Z,16.73
2023-01-18T06:41:18.180Z,15.80
2023-01-18T06:43:48.501Z,13.75
2023-01-18T06:46:19.806Z,17.97
2023-01-18T06:48:50.265Z,17.52
2023-01-18T06:51:23.517Z,17.17
2023-01-18T06:53:53.868Z,16.67
2023-01-18T06:56:25.206Z,14.97
2023-01-18T06:58:57.414Z,16.40
2023-01-18T07:01:28.411Z,15.27
2023-01-18T07:03:58.911Z,16.42
2023-01-18T07:06:32.283Z,15.52
2023-01-18T07:09:02.632Z,17.10
2023-01-18T07:11:32.947Z,19.30
2023-01-18T07:14:03.282Z,16.70
2023-01-18T07:16:33.600Z,16.00
2023-01-18T07:19:04.730Z,16.70
2023-01-18T07:21:37.715Z,16.20
2023-01-18T07:24:09.490Z,17.97
2023-01-18T07:26:40.039Z,13.90
2023-01-18T07:29:10.386Z,16.23
2023-01-18T07:31:41.143Z,16.23
2023-01-18T07:34:13.512Z,16.17
2023-01-18T07:36:47.198Z,14.87
2023-01-18T07:39:17.501Z,15.70
2023-01-18T07:41:47.745Z,17.53
2023-01-18T07:44:21.369Z,14.63
2023-01-18T07:46:51.672Z,16.73
2023-01-18T07:49:22.007Z,16.13
2023-01-18T07:51:55.293Z,16.37
2023-01-18T07:54:26.308Z,18.37
2023-01-18T07:56:56.640Z,18.48
2023-01-18T07:59:27.956Z,17.17
2023-01-18T08:04:28.591Z,15.00
2023-01-18T08:07:03.465Z,17.40
2023-01-18T08:09:34.075Z,16.93
2023-01-18T08:12:06.796Z,16.48
2023-01-18T08:14:37.179Z,19.37
2023-01-18T08:17:08.141Z,21.03
2023-01-18T08:19:38.894Z,15.68
2023-01-18T08:22:11.996Z,25.63
2023-01-18T08:24:42.310Z,27.10
2023-01-18T08:27:12.597Z,20.20
2023-01-18T08:29:42.884Z,14.63
2023-01-18T08:32:13.216Z,20.57
2023-01-18T08:34:43.772Z,14.47
2023-01-18T08:37:17.378Z,17.02
2023-01-18T08:39:47.876Z,18.40
2023-01-18T08:42:21.186Z,27.80
2023-01-18T08:44:51.918Z,23.20
2023-01-18T08:47:22.326Z,28.80
2023-01-18T08:49:52.633Z,20.93
2023-01-18T08:52:25.766Z,23.43
2023-01-18T08:54:56.058Z,17.20
2023-01-18T08:57:26.566Z,17.37
2023-01-18T08:59:57.131Z,18.65
2023-01-18T09:02:28.688Z,17.75
2023-01-18T09:04:59.226Z,18.47
2023-01-18T09:07:32.252Z,17.40
2023-01-18T09:10:02.608Z,16.67
2023-01-18T09:12:34.875Z,15.77
2023-01-18T09:15:05.162Z,16.23
2023-01-18T09:17:35.538Z,17.37
2023-01-18T09:20:09.744Z,13.67
2023-01-18T09:22:43.013Z,17.77
2023-01-18T09:25:14.087Z,16.93
2023-01-18T09:27:45.158Z,14.60
2023-01-18T09:30:16.889Z,18.80
2023-01-18T09:32:47.842Z,15.27
2023-01-18T09:35:18.737Z,14.80
2023-01-18T09:37:51.929Z,15.65
2023-01-18T09:40:25.405Z,15.27
2023-01-18T09:42:56.821Z,13.47
2023-01-18T09:45:33.402Z,13.30
2023-01-18T09:48:10.782Z,13.83
2023-01-18T09:50:45.509Z,11.53
2023-01-18T09:53:31.932Z,12.70
2023-01-18T09:56:09.807Z,12.67
2023-01-18T09:58:54.721Z,11.97
2023-01-18T10:01:30.098Z,12.17
2023-01-18T10:04:04.163Z,10.70
2023-01-18T10:06:45.256Z,10.70
2023-01-18T10:09:22.382Z,11.45
2023-01-18T10:12:00.357Z,15.70
2023-01-18T10:14:48.023Z,10.50
2023-01-18T10:17:24.142Z,10.70
2023-01-18T10:19:54.940Z,11.80
2023-01-18T10:22:29.499Z,14.13
2023-01-18T10:25:07.647Z,14.50
2023-01-18T10:28:25.296Z,20.03
2023-01-18T10:31:22.800Z,16.03
2023-01-18T10:33:57.815Z,40.10
2023-01-18T10:36:34.267Z,23.73
2023-01-18T10:39:25.346Z,15.70
2023-01-18T10:42:06.125Z,12.80
2023-01-18T10:44:37.150Z,14.23
2023-01-18T10:47:07.663Z,16.85
2023-01-18T10:49:44.010Z,33.05
2023-01-18T10:52:31.825Z,14.93
2023-01-18T10:55:07.520Z,13.37
2023-01-18T10:57:46.139Z,13.07
2023-01-18T11:00:27.829Z,11.57
2023-01-18T11:03:01.014Z,13.50
2023-01-18T11:05:35.065Z,13.30
2023-01-18T11:08:17.303Z,15.23
2023-01-18T11:10:47.604Z,13.00
2023-01-18T11:13:45.215Z,12.40
2023-01-18T11:16:19.303Z,15.23
2023-01-18T11:19:04.542Z,13.73
2023-01-18T11:21:51.669Z,14.87
2023-01-18T11:24:30.013Z,14.03
2023-01-18T11:27:03.723Z,17.80
2023-01-18T11:29:39.772Z,17.50
2023-01-18T11:32:26.720Z,14.70
2023-01-18T11:35:00.080Z,15.10
2023-01-18T11:37:37.250Z,20.77
2023-01-18T11:40:29.621Z,15.20
2023-01-18T11:43:04.426Z,23.00
2023-01-18T11:45:45.550Z,38.93
2023-01-18T11:48:31.387Z,16.30
2023-01-18T11:51:08.817Z,14.37
2023-01-18T11:53:49.542Z,14.10
2023-01-18T11:56:33.638Z,15.02
2023-01-18T11:59:05.598Z,19.23
2023-01-18T12:02:17.265Z,15.83
2023-01-18T12:05:07.890Z,12.18
2023-01-18T12:07:51.217Z,20.27
2023-01-18T12:10:25.958Z,19.13
2023-01-18T12:13:25.449Z,14.37
2023-01-18T12:16:11.254Z,14.67
2023-01-18T12:19:26.134Z,15.13
2023-01-18T12:22:30.700Z,11.77
2023-01-18T12:25:20.950Z,11.90
2023-01-18T12:28:04.984Z,15.03
2023-01-18T12:30:52.434Z,11.70
2023-01-18T12:33:43.825Z,11.10
2023-01-18T12:36:52.379Z,13.27
2023-01-18T12:39:50.593Z,12.27
2023-01-18T12:42:36.580Z,11.03
2023-01-18T12:45:21.144Z,10.37
2023-01-18T12:48:08.470Z,10.80
2023-01-18T12:50:42.635Z,10.30
2023-01-18T12:53:21.898Z,8.83
2023-01-18T12:55:59.998Z,10.67
2023-01-18T12:58:30.652Z,12.43
2023-01-18T13:01:05.923Z,10.90
2023-01-18T13:03:45.250Z,12.97
2023-01-18T13:06:17.640Z,11.33
2023-01-18T13:08:56.522Z,11.93
2023-01-18T13:11:30.455Z,11.77
2023-01-18T13:14:10.773Z,11.63
2023-01-18T13:16:53.268Z,11.67
2023-01-18T13:19:29.574Z,11.73
2023-01-18T13:22:10.382Z,10.93
2023-01-18T13:25:09.696Z,11.63
2023-01-18T13:27:40.473Z,10.93
2023-01-18T13:30:19.868Z,12.10
2023-01-18T13:32:50.196Z,12.10
2023-01-18T13:35:25.994Z,11.63
2023-01-18T13:37:59.299Z,10.60
2023-01-18T13:40:45.584Z,12.30
2023-01-18T13:43:36.569Z,12.83
2023-01-18T13:46:23.461Z,10.40
2023-01-18T13:48:57.553Z,11.97
2023-01-18T13:51:58.861Z,10.90
2023-01-18T13:55:05.665Z,13.77
2023-01-18T13:57:39.187Z,11.20
2023-01-18T14:00:25.854Z,9.53
2023-01-18T14:02:58.280Z,9.30
2023-01-18T14:05:39.460Z,9.80
2023-01-18T14:08:13.542Z,7.28
2023-01-18T14:10:53.127Z,9.53
2023-01-18T14:14:04.966Z,9.40
2023-01-18T14:16:38.342Z,11.13
2023-01-18T14:19:19.995Z,9.70
2023-01-18T14:22:11.313Z,11.30
2023-01-18T14:25:12.935Z,10.75
2023-01-18T14:30:28.555Z,11.13
2023-01-18T14:33:04.685Z,9.47
2023-01-18T14:35:35.145Z,9.87
2023-01-18T14:38:18.013Z,9.50
2023-01-18T14:40:51.442Z,10.03
2023-01-18T14:43:28.981Z,8.27
2023-01-18T14:46:05.717Z,8.60
2023-01-18T14:48:38.920Z,8.13
2023-01-18T14:51:09.717Z,7.53
2023-01-18T14:53:48.551Z,9.35
2023-01-18T14:56:23.022Z,9.40
2023-01-18T14:58:59.276Z,8.97
2023-01-18T15:01:36.316Z,9.37
2023-01-18T15:04:18.940Z,8.73
2023-01-18T15:06:52.106Z,7.07
2023-01-18T15:09:27.994Z,13.73
2023-01-18T15:12:05.657Z,8.30
2023-01-18T15:14:39.949Z,7.40
2023-01-18T15:17:21.670Z,7.87
2023-01-18T15:19:55.803Z,8.13
2023-01-18T15:22:32.454Z,9.73
2023-01-18T15:25:03.630Z,9.07
2023-01-18T15:27:35.761Z,8.43
2023-01-18T15:30:15.386Z,7.60
2023-01-18T15:32:50.466Z,7.93
2023-01-18T15:35:21.199Z,8.60
2023-01-18T15:37:51.779Z,9.48
2023-01-18T15:40:29.831Z,12.43
2023-01-18T15:43:09.256Z,7.63
2023-01-18T15:45:43.899Z,8.20
2023-01-18T15:48:23.288Z,7.37
2023-01-18T15:50:56.831Z,7.37
2023-01-18T15:53:33.973Z,7.73
2023-01-18T15:56:06.606Z,8.10
2023-01-18T15:58:40.189Z,6.80
2023-01-18T16:01:20.419Z,6.70
2023-01-18T16:04:04.578Z,7.03
2023-01-18T16:06:37.553Z,10.40
2023-01-18T16:09:19.235Z,6.97
2023-01-18T16:11:52.713Z,6.90
2023-01-18T16:14:35.260Z,6.47
2023-01-18T16:17:09.700Z,6.23
2023-01-18T16:19:45.966Z,5.63
2023-01-18T16:22:23.995Z,7.80
2023-01-18T16:24:57.887Z,6.47
2023-01-18T16:27:31.967Z,6.53
2023-01-18T16:30:05.541Z,6.60
2023-01-18T16:32:39.143Z,7.17
2023-01-18T16:35:20.202Z,7.63
2023-01-18T16:37:52.146Z,8.43
2023-01-18T16:40:25.932Z,11.77
2023-01-18T16:43:03.402Z,96.57
2023-01-18T16:45:37.891Z,60.80
2023-01-18T16:48:09.425Z,17.23
2023-01-18T16:50:42.372Z,15.47
2023-01-18T16:53:12.804Z,16.90
2023-01-18T16:55:44.235Z,16.40
2023-01-18T16:58:16.305Z,16.97
2023-01-18T17:00:55.252Z,17.03
2023-01-18T17:03:26.144Z,17.30
2023-01-18T17:05:59.141Z,15.85
2023-01-18T17:08:29.485Z,18.87
2023-01-18T17:11:00.119Z,18.93
2023-01-18T17:13:30.808Z,16.92
2023-01-18T17:16:01.158Z,16.33
2023-01-18T17:18:31.501Z,16.40
2023-01-18T17:21:04.407Z,17.60
2023-01-18T17:23:34.769Z,39.17
2023-01-18T17:26:05.321Z,45.53
2023-01-18T17:28:35.824Z,20.13
2023-01-18T17:31:06.319Z,16.17
2023-01-18T17:33:39.279Z,12.05
2023-01-18T17:36:12.835Z,14.73
2023-01-18T17:38:43.449Z,16.30
2023-01-18T17:41:26.706Z,13.55
2023-01-18T17:43:57.654Z,13.17
2023-01-18T17:46:28.302Z,16.40
2023-01-18T17:48:59.125Z,15.23
2023-01-18T17:51:35.485Z,10.63
2023-01-18T17:54:13.150Z,10.27
2023-01-18T17:56:50.796Z,14.63
2023-01-18T17:59:21.108Z,10.73
2023-01-18T18:01:51.633Z,13.67
2023-01-18T18:04:22.146Z,12.32
2023-01-18T18:06:58.487Z,12.63
2023-01-18T18:09:29.109Z,12.17
2023-01-18T18:12:00.212Z,10.80
2023-01-18T18:14:30.809Z,9.65
2023-01-18T18:17:01.209Z,11.30
2023-01-18T18:19:32.475Z,14.23
2023-01-18T18:24:36.412Z,14.00
2023-01-18T18:27:06.969Z,13.20
2023-01-18T18:29:37.294Z,14.37
2023-01-18T18:32:09.041Z,11.80
2023-01-18T18:34:40.209Z,12.07
2023-01-18T18:37:15.263Z,13.65
2023-01-18T18:39:45.652Z,11.60
2023-01-18T18:42:15.986Z,13.07
2023-01-18T18:44:46.707Z,12.10
2023-01-18T18:47:17.251Z,12.02
2023-01-18T18:49:48.037Z,13.43
2023-01-18T18:52:21.027Z,22.15
2023-01-18T18:54:51.365Z,39.23
2023-01-18T18:57:21.672Z,18.80
2023-01-18T18:59:51.931Z,14.13
2023-01-18T19:02:22.229Z,12.47
2023-01-18T19:04:52.774Z,15.57
2023-01-18T19:07:25.801Z,15.30
2023-01-18T19:09:56.164Z,15.10
2023-01-18T19:12:26.565Z,14.77
2023-01-18T19:14:56.831Z,14.87
2023-01-18T19:17:31.512Z,18.07
2023-01-18T19:20:02.388Z,20.10
2023-01-18T19:22:35.373Z,25.60
2023-01-18T19:25:05.711Z,22.83
2023-01-18T19:27:35.935Z,16.07
2023-01-18T19:30:12.980Z,24.03
2023-01-18T19:32:43.376Z,22.47
2023-01-18T19:35:13.844Z,21.00
2023-01-18T19:37:47.752Z,23.55
2023-01-18T19:40:20.102Z,22.50
2023-01-18T19:42:55.936Z,25.27
2023-01-18T19:45:28.511Z,21.83
2023-01-18T19:48:00.720Z,22.53
2023-01-18T19:50:32.832Z,24.77
2023-01-18T19:53:06.255Z,20.50
2023-01-18T19:55:37.262Z,26.07
2023-01-18T19:58:07.680Z,20.50
2023-01-18T20:00:41.435Z,24.77
2023-01-18T20:03:16.367Z,23.77
2023-01-18T20:05:47.436Z,18.10
2023-01-18T20:08:20.404Z,29.25
2023-01-18T20:10:52.860Z,20.13
2023-01-18T20:13:24.495Z,23.97
2023-01-18T20:15:54.946Z,20.47
2023-01-18T20:18:25.359Z,19.92
2023-01-18T20:20:57.067Z,21.37
2023-01-18T20:23:30.984Z,19.77
2023-01-18T20:26:01.475Z,19.87
2023-01-18T20:28:31.962Z,20.70
2023-01-18T20:31:03.623Z,18.52
2023-01-18T20:33:35.474Z,23.27
2023-01-18T20:36:05.964Z,23.33
2023-01-18T20:38:39.278Z,24.90
2023-01-18T20:41:09.807Z,26.57
2023-01-18T20:43:41.329Z,22.00
2023-01-18T20:46:13.577Z,20.30
2023-01-18T20:48:43.912Z,24.73
2023-01-18T20:51:14.415Z,27.17
2023-01-18T20:53:47.481Z,19.27
2023-01-18T20:56:28.892Z,21.07
2023-01-18T20:59:00.261Z,20.27
2023-01-18T21:01:33.080Z,24.73
2023-01-18T21:04:05.643Z,24.50
2023-01-18T21:06:36.095Z,73.63
2023-01-18T21:09:09.110Z,36.50
2023-01-18T21:11:39.455Z,27.13
2023-01-18T21:14:10.129Z,26.87
2023-01-18T21:16:40.609Z,21.65
2023-01-18T21:19:11.028Z,23.47
2023-01-18T21:21:41.635Z,24.10
2023-01-18T21:24:14.752Z,30.25
2023-01-18T21:26:45.053Z,22.43
2023-01-18T21:29:15.390Z,23.10
2023-01-18T21:31:45.742Z,22.90
2023-01-18T21:34:16.167Z,23.67
2023-01-18T21:36:46.546Z,22.83
2023-01-18T21:39:25.340Z,20.20
2023-01-18T21:42:08.192Z,29.30
2023-01-18T21:44:50.879Z,25.73
2023-01-18T21:47:21.139Z,26.90
2023-01-18T21:50:19.063Z,24.73
2023-01-18T21:53:01.654Z,22.30
2023-01-18T21:55:34.588Z,26.10
2023-01-18T21:58:17.279Z,24.93
2023-01-18T22:00:47.747Z,21.27
2023-01-18T22:03:18.658Z,26.13
2023-01-18T22:05:49.153Z,19.83
2023-01-18T22:08:19.589Z,26.45
2023-01-18T22:10:52.550Z,24.53
2023-01-18T22:13:22.934Z,26.30
2023-01-18T22:15:53.356Z,25.17
2023-01-18T22:18:23.708Z,25.10
2023-01-18T22:21:00.101Z,26.27
2023-01-18T22:23:30.485Z,25.50
2023-01-18T22:26:03.563Z,27.20
2023-01-18T22:28:33.907Z,22.97
2023-01-18T22:31:06.873Z,24.13
2023-01-18T22:33:37.424Z,26.10
2023-01-18T22:36:08.899Z,22.75
2023-01-18T22:38:41.230Z,24.50
2023-01-18T22:41:16.626Z,27.27
2023-01-18T22:43:48.397Z,25.17
2023-01-18T22:46:20.767Z,24.40
2023-01-18T22:48:51.864Z,21.47
2023-01-18T22:51:24.175Z,19.25
2023-01-18T22:53:56.419Z,20.27
2023-01-18T22:56:29.349Z,22.20
2023-01-18T22:59:00.607Z,22.67
2023-01-18T23:09:14.485Z,22.87
2023-01-18T23:11:49.050Z,20.93
2023-01-18T23:14:31.678Z,25.93
2023-01-18T23:17:14.353Z,23.10
2023-01-18T23:19:44.732Z,17.70
2023-01-18T23:22:15.163Z,19.55
2023-01-18T23:24:45.530Z,22.53
2023-01-18T23:27:18.439Z,22.20
2023-01-18T23:29:49.815Z,21.20
2023-01-18T23:32:20.527Z,24.87
2023-01-18T23:34:50.878Z,20.47
2023-01-18T23:37:21.209Z,22.33
2023-01-18T23:40:03.923Z,20.20
2023-01-18T23:42:49.879Z,19.60
2023-01-18T23:45:32.648Z,21.07
2023-01-18T23:48:22.586Z,29.93
2023-01-18T23:51:05.233Z,21.97
2023-01-18T23:53:47.864Z,23.50
2023-01-18T23:56:18.153Z,19.60
2023-01-18T23:58:51.482Z,20.73
